GLD1287 MDPP-MYNN
Flight info
| Callsign | GLD1287 |
|---|---|
| Flight time | N/A |
| Altitude | 36000 |
| Route | MALV3C RUMFO DCT Y396 DCT BITAC DCT HINZYI14 |
| Aircraft | C25C/M-SDFGIRY/S |
Departure
| Time | 2026-05-05 23:29 |
|---|---|
| Airport | Gregorio Luperon International Airport (MDPP) |
Arrival
| Time | N/A |
|---|---|
| Airport | Lynden Pindling International Airport (MYNN) |
| Time | Latitude | Longitude | Altitude | Speed | Heading |
|---|---|---|---|---|---|
| 2026-05-05 22:47 | 19.75421 | -70.56474 | 43 ft | 0 kts | 341° |
| 2026-05-05 23:18 | 19.75424 | -70.56475 | 43 ft | 5 kts | 341° |
| 2026-05-05 23:18 | 19.75438 | -70.56542 | 43 ft | 13 kts | 258° |
| 2026-05-05 23:18 | 19.75485 | -70.56594 | 42 ft | 14 kts | 343° |
| 2026-05-05 23:19 | 19.75599 | -70.56629 | 42 ft | 18 kts | 343° |
| 2026-05-05 23:19 | 19.75619 | -70.56711 | 41 ft | 16 kts | 251° |
| 2026-05-05 23:19 | 19.75581 | -70.56845 | 39 ft | 22 kts | 253° |
| 2026-05-05 23:19 | 19.75536 | -70.57002 | 36 ft | 18 kts | 252° |
| 2026-05-05 23:20 | 19.75574 | -70.57095 | 35 ft | 15 kts | 315° |
| 2026-05-05 23:20 | 19.75642 | -70.57168 | 33 ft | 0 kts | 315° |
| 2026-05-05 23:23 | 19.75649 | -70.57176 | 33 ft | 9 kts | 315° |
| 2026-05-05 23:23 | 19.75704 | -70.57285 | 29 ft | 18 kts | 259° |
| 2026-05-05 23:23 | 19.75654 | -70.57454 | 28 ft | 30 kts | 253° |
| 2026-05-05 23:24 | 19.75603 | -70.57636 | 28 ft | 26 kts | 253° |
| 2026-05-05 23:24 | 19.75555 | -70.57799 | 29 ft | 19 kts | 252° |
| 2026-05-05 23:24 | 19.75512 | -70.57941 | 29 ft | 17 kts | 252° |
| 2026-05-05 23:24 | 19.75466 | -70.58102 | 29 ft | 28 kts | 253° |
| 2026-05-05 23:25 | 19.75418 | -70.58274 | 27 ft | 17 kts | 253° |
| 2026-05-05 23:25 | 19.75373 | -70.58354 | 27 ft | 14 kts | 233° |
| 2026-05-05 23:25 | 19.75386 | -70.58379 | 26 ft | 9 kts | 60° |
| 2026-05-05 23:25 | 19.75391 | -70.58362 | 26 ft | 0 kts | 71° |
| 2026-05-05 23:28 | 19.75395 | -70.58349 | 27 ft | 21 kts | 71° |
| 2026-05-05 23:28 | 19.75551 | -70.57826 | 30 ft | 122 kts | 72° |
| 2026-05-05 23:28 | 19.75857 | -70.56780 | 416 ft | 178 kts | 73° |
| 2026-05-05 23:29 | 19.76244 | -70.55277 | 977 ft | 224 kts | 78° |
| 2026-05-05 23:29 | 19.76695 | -70.53810 | 2931 ft | 197 kts | 72° |
| 2026-05-05 23:29 | 19.77184 | -70.52546 | 4772 ft | 173 kts | 70° |
| 2026-05-05 23:29 | 19.77891 | -70.51642 | 6293 ft | 157 kts | 16° |
| 2026-05-05 23:30 | 19.78931 | -70.51366 | 7443 ft | 158 kts | 15° |
| 2026-05-05 23:30 | 19.80021 | -70.51100 | 8481 ft | 163 kts | 10° |
| 2026-05-05 23:30 | 19.81139 | -70.50811 | 9540 ft | 168 kts | 15° |
| 2026-05-05 23:30 | 19.82282 | -70.50472 | 10547 ft | 172 kts | 15° |
| 2026-05-05 23:31 | 19.83432 | -70.50105 | 11579 ft | 174 kts | 14° |
| 2026-05-05 23:31 | 19.84598 | -70.49737 | 12622 ft | 176 kts | 14° |
| 2026-05-05 23:31 | 19.85782 | -70.49364 | 13674 ft | 179 kts | 13° |
| 2026-05-05 23:31 | 19.86981 | -70.48981 | 14635 ft | 181 kts | 12° |
| 2026-05-05 23:32 | 19.88197 | -70.48598 | 15596 ft | 184 kts | 12° |
| 2026-05-05 23:32 | 19.89429 | -70.48209 | 16563 ft | 186 kts | 11° |
| 2026-05-05 23:32 | 19.90682 | -70.47811 | 17533 ft | 190 kts | 10° |
| 2026-05-05 23:32 | 19.91963 | -70.47420 | 18467 ft | 192 kts | 5° |
| 2026-05-05 23:33 | 19.93273 | -70.47344 | 19311 ft | 189 kts | 355° |
| 2026-05-05 23:33 | 19.94597 | -70.47274 | 20174 ft | 191 kts | 356° |
| 2026-05-05 23:33 | 19.95933 | -70.47211 | 21040 ft | 194 kts | 356° |
| 2026-05-05 23:33 | 19.97284 | -70.47147 | 21905 ft | 195 kts | 356° |
| 2026-05-05 23:34 | 19.98623 | -70.47234 | 22764 ft | 189 kts | 332° |
| 2026-05-05 23:34 | 19.99717 | -70.47974 | 23592 ft | 187 kts | 310° |
| 2026-05-05 23:34 | 20.00334 | -70.49168 | 24289 ft | 186 kts | 285° |
| 2026-05-05 23:34 | 20.00434 | -70.50543 | 24982 ft | 188 kts | 273° |
| 2026-05-05 23:35 | 20.00490 | -70.51941 | 25683 ft | 190 kts | 272° |
| 2026-05-05 23:35 | 20.00529 | -70.53351 | 26388 ft | 192 kts | 273° |
| 2026-05-05 23:35 | 20.00568 | -70.54772 | 27091 ft | 193 kts | 273° |
| 2026-05-05 23:35 | 20.00613 | -70.56206 | 27799 ft | 195 kts | 272° |
| 2026-05-05 23:36 | 20.00655 | -70.57653 | 28492 ft | 197 kts | 273° |
| 2026-05-05 23:36 | 20.00696 | -70.59105 | 29229 ft | 196 kts | 273° |
| 2026-05-05 23:36 | 20.00740 | -70.60544 | 29986 ft | 194 kts | 272° |
| 2026-05-05 23:36 | 20.00782 | -70.61973 | 30609 ft | 193 kts | 273° |
| 2026-05-05 23:37 | 20.00821 | -70.63375 | 31206 ft | 191 kts | 272° |
| 2026-05-05 23:37 | 20.00865 | -70.64805 | 31802 ft | 191 kts | 272° |
| 2026-05-05 23:37 | 20.00906 | -70.66208 | 32382 ft | 189 kts | 272° |
| 2026-05-05 23:37 | 20.00944 | -70.67604 | 32961 ft | 188 kts | 272° |
| 2026-05-05 23:38 | 20.00986 | -70.68992 | 33521 ft | 187 kts | 272° |
| 2026-05-05 23:38 | 20.01026 | -70.70355 | 34054 ft | 187 kts | 272° |
| 2026-05-05 23:38 | 20.01065 | -70.71776 | 34321 ft | 198 kts | 272° |
| 2026-05-05 23:38 | 20.01109 | -70.73288 | 34568 ft | 211 kts | 272° |
| 2026-05-05 23:39 | 20.01156 | -70.74886 | 34834 ft | 222 kts | 272° |
| 2026-05-05 23:39 | 20.01202 | -70.76565 | 35108 ft | 233 kts | 272° |
| 2026-05-05 23:39 | 20.01252 | -70.78325 | 35388 ft | 243 kts | 272° |
| 2026-05-05 23:39 | 20.01305 | -70.80160 | 35673 ft | 253 kts | 272° |
| 2026-05-05 23:40 | 20.01358 | -70.82070 | 35931 ft | 264 kts | 272° |
| 2026-05-05 23:40 | 20.01414 | -70.84079 | 36036 ft | 280 kts | 272° |
| 2026-05-05 23:40 | 20.01475 | -70.86220 | 36054 ft | 299 kts | 272° |
| 2026-05-05 23:40 | 20.01537 | -70.88494 | 36052 ft | 317 kts | 272° |
| 2026-05-05 23:41 | 20.01604 | -70.90897 | 36054 ft | 333 kts | 272° |
| 2026-05-05 23:41 | 20.01675 | -70.93421 | 36054 ft | 349 kts | 272° |
| 2026-05-05 23:41 | 20.01745 | -70.96050 | 36053 ft | 363 kts | 272° |
| 2026-05-05 23:41 | 20.01820 | -70.98776 | 36051 ft | 375 kts | 272° |
| 2026-05-05 23:42 | 20.01911 | -71.01589 | 36046 ft | 386 kts | 274° |
| 2026-05-05 23:42 | 20.02268 | -71.04454 | 36045 ft | 396 kts | 280° |
| 2026-05-05 23:42 | 20.03960 | -71.10126 | 36040 ft | 408 kts | 293° |
| 2026-05-05 23:43 | 20.06910 | -71.15288 | 36041 ft | 407 kts | 306° |
| 2026-05-05 23:43 | 20.10892 | -71.19511 | 36041 ft | 404 kts | 318° |
| 2026-05-05 23:44 | 20.15604 | -71.22723 | 36043 ft | 401 kts | 325° |
| 2026-05-05 23:44 | 20.20360 | -71.25744 | 36039 ft | 396 kts | 325° |
| 2026-05-05 23:45 | 20.25070 | -71.28727 | 36038 ft | 392 kts | 325° |
| 2026-05-05 23:45 | 20.29740 | -71.31690 | 36038 ft | 389 kts | 325° |
| 2026-05-05 23:46 | 20.34380 | -71.34637 | 36035 ft | 387 kts | 325° |
| 2026-05-05 23:46 | 20.38983 | -71.37582 | 36033 ft | 384 kts | 323° |
| 2026-05-05 23:47 | 20.43024 | -71.41216 | 36036 ft | 378 kts | 310° |
| 2026-05-05 23:47 | 20.46330 | -71.45533 | 36037 ft | 375 kts | 306° |
| 2026-05-05 23:48 | 20.49562 | -71.49846 | 36040 ft | 374 kts | 306° |
| 2026-05-05 23:48 | 20.52790 | -71.54193 | 36041 ft | 373 kts | 306° |
| 2026-05-05 23:49 | 20.56043 | -71.58558 | 36042 ft | 373 kts | 306° |
| 2026-05-05 23:49 | 20.59240 | -71.62858 | 36045 ft | 372 kts | 306° |
| 2026-05-05 23:50 | 20.62396 | -71.67102 | 36046 ft | 352 kts | 306° |
| 2026-05-05 23:50 | 20.63892 | -71.69116 | 36035 ft | 341 kts | 307° |
| 2026-05-05 23:50 | 20.65340 | -71.71069 | 36032 ft | 331 kts | 306° |
| 2026-05-05 23:51 | 20.68128 | -71.74825 | 36032 ft | 315 kts | 307° |
| 2026-05-05 23:51 | 20.70788 | -71.78410 | 36026 ft | 301 kts | 307° |
| 2026-05-05 23:52 | 20.72075 | -71.80148 | 36034 ft | 295 kts | 307° |
| 2026-05-05 23:52 | 20.73338 | -71.81854 | 36030 ft | 290 kts | 307° |
| 2026-05-05 23:52 | 20.74580 | -71.83528 | 36034 ft | 285 kts | 307° |
| 2026-05-05 23:52 | 20.75800 | -71.85177 | 36033 ft | 281 kts | 307° |
| 2026-05-05 23:53 | 20.77001 | -71.86800 | 36033 ft | 277 kts | 307° |
| 2026-05-05 23:53 | 20.78194 | -71.88410 | 36037 ft | 275 kts | 307° |
| 2026-05-05 23:53 | 20.79382 | -71.90018 | 36032 ft | 277 kts | 307° |
| 2026-05-05 23:53 | 20.80578 | -71.91634 | 36035 ft | 278 kts | 307° |
| 2026-05-05 23:54 | 20.81782 | -71.93262 | 36035 ft | 280 kts | 307° |
| 2026-05-05 23:54 | 20.82990 | -71.94897 | 36038 ft | 281 kts | 307° |
| 2026-05-05 23:54 | 20.84203 | -71.96537 | 36041 ft | 282 kts | 307° |
| 2026-05-05 23:54 | 20.85423 | -71.98188 | 36050 ft | 285 kts | 307° |
| 2026-05-05 23:55 | 20.86660 | -71.99864 | 36056 ft | 289 kts | 307° |
| 2026-05-05 23:55 | 20.87913 | -72.01560 | 36054 ft | 293 kts | 307° |
| 2026-05-05 23:55 | 20.89184 | -72.03282 | 36050 ft | 297 kts | 308° |
| 2026-05-05 23:55 | 20.90468 | -72.05022 | 36054 ft | 300 kts | 308° |
| 2026-05-05 23:56 | 20.93081 | -72.08564 | 36058 ft | 306 kts | 308° |
| 2026-05-05 23:56 | 20.95739 | -72.12168 | 36062 ft | 311 kts | 308° |
| 2026-05-05 23:57 | 20.98438 | -72.15833 | 36052 ft | 320 kts | 308° |
| 2026-05-05 23:57 | 21.01222 | -72.19614 | 36052 ft | 327 kts | 308° |
| 2026-05-05 23:58 | 21.04061 | -72.23474 | 36051 ft | 333 kts | 308° |
| 2026-05-05 23:58 | 21.06943 | -72.27391 | 36053 ft | 337 kts | 308° |
| 2026-05-05 23:59 | 21.09860 | -72.31362 | 36053 ft | 341 kts | 309° |
| 2026-05-05 23:59 | 21.12801 | -72.35369 | 36054 ft | 343 kts | 309° |
| 2026-05-06 00:00 | 21.15761 | -72.39404 | 36049 ft | 345 kts | 309° |
| 2026-05-06 00:00 | 21.18737 | -72.43461 | 36046 ft | 347 kts | 309° |
| 2026-05-06 00:01 | 21.21718 | -72.47533 | 36051 ft | 348 kts | 309° |
| 2026-05-06 00:01 | 21.24705 | -72.51613 | 36053 ft | 348 kts | 309° |
| 2026-05-06 00:02 | 21.27698 | -72.55703 | 36053 ft | 349 kts | 309° |
| 2026-05-06 00:02 | 21.30688 | -72.59794 | 36053 ft | 349 kts | 309° |
| 2026-05-06 00:03 | 21.33679 | -72.63890 | 36052 ft | 349 kts | 309° |
| 2026-05-06 00:03 | 21.36670 | -72.67988 | 36053 ft | 349 kts | 309° |
| 2026-05-06 00:04 | 21.39658 | -72.72084 | 36053 ft | 348 kts | 310° |
| 2026-05-06 00:04 | 21.42643 | -72.76179 | 36053 ft | 348 kts | 310° |
| 2026-05-06 00:05 | 21.47094 | -72.82292 | 36054 ft | 348 kts | 310° |
| 2026-05-06 00:06 | 21.50069 | -72.86383 | 36053 ft | 347 kts | 310° |
| 2026-05-06 00:06 | 21.52561 | -72.89811 | 36057 ft | 347 kts | 310° |
| 2026-05-06 00:07 | 21.56009 | -72.94556 | 36056 ft | 347 kts | 310° |
| 2026-05-06 00:07 | 21.58493 | -72.97977 | 36056 ft | 346 kts | 310° |
| 2026-05-06 00:08 | 21.61449 | -73.02054 | 36058 ft | 346 kts | 310° |
| 2026-05-06 00:08 | 21.64383 | -73.06103 | 36054 ft | 345 kts | 310° |
| 2026-05-06 00:09 | 21.67352 | -73.10200 | 36059 ft | 345 kts | 310° |
| 2026-05-06 00:09 | 21.70294 | -73.14264 | 36059 ft | 344 kts | 310° |
| 2026-05-06 00:10 | 21.73229 | -73.18323 | 36057 ft | 344 kts | 310° |
| 2026-05-06 00:10 | 21.76143 | -73.22356 | 36059 ft | 343 kts | 310° |
| 2026-05-06 00:11 | 21.79069 | -73.26407 | 36059 ft | 343 kts | 310° |
| 2026-05-06 00:11 | 21.81991 | -73.30455 | 36059 ft | 342 kts | 310° |
| 2026-05-06 00:12 | 21.84905 | -73.34498 | 36063 ft | 342 kts | 310° |
| 2026-05-06 00:12 | 21.87814 | -73.38536 | 36061 ft | 341 kts | 310° |
| 2026-05-06 00:13 | 21.90720 | -73.42570 | 36062 ft | 340 kts | 310° |
| 2026-05-06 00:13 | 21.93617 | -73.46598 | 36059 ft | 340 kts | 310° |
| 2026-05-06 00:14 | 21.96509 | -73.50622 | 36061 ft | 339 kts | 310° |
| 2026-05-06 00:14 | 21.99395 | -73.54638 | 36059 ft | 339 kts | 310° |
| 2026-05-06 00:15 | 22.02278 | -73.58652 | 36056 ft | 338 kts | 310° |
| 2026-05-06 00:15 | 22.05152 | -73.62661 | 36058 ft | 338 kts | 310° |
| 2026-05-06 00:16 | 22.08047 | -73.66698 | 36063 ft | 346 kts | 310° |
| 2026-05-06 00:16 | 22.11046 | -73.70884 | 36063 ft | 359 kts | 310° |
| 2026-05-06 00:17 | 22.14137 | -73.75203 | 36059 ft | 368 kts | 310° |
| 2026-05-06 00:17 | 22.17298 | -73.79625 | 36062 ft | 376 kts | 310° |
| 2026-05-06 00:18 | 22.20514 | -73.84127 | 36064 ft | 381 kts | 310° |
| 2026-05-06 00:18 | 22.23748 | -73.88657 | 36064 ft | 385 kts | 309° |
| 2026-05-06 00:19 | 22.27030 | -73.93257 | 36065 ft | 389 kts | 309° |
| 2026-05-06 00:19 | 22.30338 | -73.97898 | 36062 ft | 391 kts | 309° |
| 2026-05-06 00:20 | 22.33654 | -74.02557 | 36065 ft | 387 kts | 309° |
| 2026-05-06 00:20 | 22.36852 | -74.07056 | 36056 ft | 369 kts | 309° |
| 2026-05-06 00:21 | 22.39923 | -74.11374 | 36042 ft | 356 kts | 309° |
| 2026-05-06 00:21 | 22.42895 | -74.15557 | 36045 ft | 346 kts | 309° |
| 2026-05-06 00:22 | 22.45789 | -74.19635 | 36043 ft | 338 kts | 309° |
| 2026-05-06 00:22 | 22.48627 | -74.23638 | 36043 ft | 332 kts | 309° |
| 2026-05-06 00:23 | 22.51420 | -74.27578 | 36045 ft | 328 kts | 309° |
| 2026-05-06 00:23 | 22.54179 | -74.31474 | 36047 ft | 325 kts | 309° |
| 2026-05-06 00:24 | 22.56911 | -74.35336 | 36047 ft | 322 kts | 309° |
| 2026-05-06 00:24 | 22.59605 | -74.39147 | 36046 ft | 320 kts | 309° |
| 2026-05-06 00:25 | 22.62302 | -74.42961 | 36046 ft | 318 kts | 309° |
| 2026-05-06 00:25 | 22.64987 | -74.46765 | 36047 ft | 317 kts | 309° |
| 2026-05-06 00:26 | 22.67661 | -74.50557 | 36042 ft | 316 kts | 309° |
| 2026-05-06 00:26 | 22.70328 | -74.54339 | 36045 ft | 316 kts | 309° |
| 2026-05-06 00:27 | 22.72988 | -74.58114 | 36043 ft | 315 kts | 309° |
| 2026-05-06 00:27 | 22.75641 | -74.61884 | 36045 ft | 314 kts | 309° |
| 2026-05-06 00:28 | 22.78289 | -74.65647 | 36045 ft | 314 kts | 309° |
| 2026-05-06 00:28 | 22.80935 | -74.69410 | 36048 ft | 313 kts | 309° |
| 2026-05-06 00:29 | 22.83574 | -74.73168 | 36047 ft | 313 kts | 309° |
| 2026-05-06 00:29 | 22.86212 | -74.76926 | 36044 ft | 313 kts | 309° |
| 2026-05-06 00:30 | 22.88863 | -74.80703 | 36048 ft | 316 kts | 309° |
| 2026-05-06 00:30 | 22.91536 | -74.84518 | 36055 ft | 319 kts | 309° |
| 2026-05-06 00:31 | 22.94226 | -74.88359 | 36059 ft | 321 kts | 309° |
| 2026-05-06 00:31 | 22.96910 | -74.92193 | 36067 ft | 322 kts | 309° |
| 2026-05-06 00:32 | 22.99622 | -74.96070 | 36063 ft | 323 kts | 309° |
| 2026-05-06 00:32 | 23.02341 | -74.99962 | 36062 ft | 326 kts | 309° |
| 2026-05-06 00:33 | 23.05154 | -75.03987 | 36067 ft | 343 kts | 309° |
| 2026-05-06 00:33 | 23.08091 | -75.08196 | 36067 ft | 356 kts | 309° |
| 2026-05-06 00:34 | 23.11125 | -75.12550 | 36063 ft | 366 kts | 309° |
| 2026-05-06 00:34 | 23.14231 | -75.17012 | 36065 ft | 374 kts | 309° |
| 2026-05-06 00:35 | 23.17393 | -75.21555 | 36065 ft | 379 kts | 309° |
| 2026-05-06 00:35 | 23.20556 | -75.26106 | 36066 ft | 371 kts | 309° |
| 2026-05-06 00:36 | 23.23602 | -75.30492 | 36056 ft | 357 kts | 308° |
| 2026-05-06 00:36 | 23.26548 | -75.34738 | 36044 ft | 347 kts | 309° |
| 2026-05-06 00:37 | 23.29418 | -75.38876 | 36044 ft | 339 kts | 309° |
| 2026-05-06 00:37 | 23.32232 | -75.42936 | 36046 ft | 333 kts | 309° |
| 2026-05-06 00:38 | 23.35000 | -75.46935 | 36048 ft | 329 kts | 308° |
| 2026-05-06 00:38 | 23.37732 | -75.50884 | 36039 ft | 325 kts | 309° |
| 2026-05-06 00:39 | 23.40442 | -75.54803 | 36042 ft | 323 kts | 309° |
| 2026-05-06 00:39 | 23.43195 | -75.58787 | 36047 ft | 335 kts | 308° |
| 2026-05-06 00:40 | 23.46032 | -75.62900 | 36059 ft | 344 kts | 308° |
| 2026-05-06 00:40 | 23.48933 | -75.67108 | 36060 ft | 351 kts | 308° |
| 2026-05-06 00:41 | 23.51884 | -75.71390 | 36059 ft | 356 kts | 308° |
| 2026-05-06 00:41 | 23.54871 | -75.75727 | 36062 ft | 360 kts | 308° |
| 2026-05-06 00:42 | 23.57886 | -75.80112 | 36061 ft | 363 kts | 308° |
| 2026-05-06 00:42 | 23.60919 | -75.84526 | 36060 ft | 365 kts | 308° |
| 2026-05-06 00:43 | 23.63967 | -75.88965 | 36061 ft | 366 kts | 308° |
| 2026-05-06 00:43 | 23.67006 | -75.93393 | 36062 ft | 367 kts | 308° |
| 2026-05-06 00:44 | 23.70071 | -75.97863 | 36058 ft | 368 kts | 308° |
| 2026-05-06 00:44 | 23.73139 | -76.02346 | 36060 ft | 369 kts | 308° |
| 2026-05-06 00:45 | 23.76211 | -76.06836 | 36059 ft | 369 kts | 308° |
| 2026-05-06 00:45 | 23.79283 | -76.11330 | 36058 ft | 369 kts | 308° |
| 2026-05-06 00:46 | 23.82357 | -76.15829 | 36060 ft | 370 kts | 308° |